createdAt,value
2022-12-08T00:01:27.147Z,14.97
2022-12-08T00:03:54.466Z,16.63
2022-12-08T00:07:00.299Z,19.17
2022-12-08T00:09:39.895Z,15.93
2022-12-08T00:12:21.060Z,15.07
2022-12-08T00:14:50.831Z,16.80
2022-12-08T00:17:19.868Z,17.17
2022-12-08T00:19:46.374Z,18.10
2022-12-08T00:22:14.774Z,13.60
2022-12-08T00:24:49.943Z,18.93
2022-12-08T00:27:18.496Z,17.23
2022-12-08T00:29:45.839Z,14.03
2022-12-08T00:32:13.107Z,14.10
2022-12-08T00:34:39.707Z,17.97
2022-12-08T00:37:06.218Z,13.57
2022-12-08T00:39:32.973Z,15.77
2022-12-08T00:42:14.649Z,20.17
2022-12-08T00:44:42.963Z,13.60
2022-12-08T00:47:10.159Z,19.20
2022-12-08T00:49:36.702Z,12.23
2022-12-08T00:52:03.412Z,18.40
2022-12-08T00:54:29.982Z,14.40
2022-12-08T00:56:56.477Z,19.13
2022-12-08T00:59:22.994Z,18.37
2022-12-08T01:01:51.897Z,12.20
2022-12-08T01:04:22.136Z,18.87
2022-12-08T01:06:51.853Z,15.37
2022-12-08T01:09:19.094Z,16.07
2022-12-08T01:11:46.063Z,12.00
2022-12-08T01:14:13.272Z,21.30
2022-12-08T01:16:41.529Z,16.57
2022-12-08T01:19:10.790Z,14.40
2022-12-08T01:21:37.438Z,20.33
2022-12-08T01:24:04.287Z,19.93
2022-12-08T01:26:30.847Z,17.80
2022-12-08T01:28:57.387Z,16.90
2022-12-08T01:31:24.439Z,18.30
2022-12-08T01:33:53.529Z,17.03
2022-12-08T01:36:25.793Z,13.97
2022-12-08T01:38:56.598Z,17.93
2022-12-08T01:41:29.979Z,17.10
2022-12-08T01:44:13.588Z,15.00
2022-12-08T01:46:42.136Z,14.53
2022-12-08T01:49:26.261Z,14.23
2022-12-08T01:52:00.269Z,15.23
2022-12-08T01:54:32.286Z,18.90
2022-12-08T01:57:00.847Z,15.40
2022-12-08T01:59:30.516Z,15.43
2022-12-08T02:01:57.988Z,16.70
2022-12-08T02:04:27.541Z,14.90
2022-12-08T02:06:58.115Z,17.30
2022-12-08T02:09:27.491Z,21.27
2022-12-08T02:11:57.714Z,13.20
2022-12-08T02:14:28.598Z,12.83
2022-12-08T02:17:22.325Z,13.97
2022-12-08T02:20:21.203Z,13.03
2022-12-08T02:23:22.732Z,13.13
2022-12-08T02:26:11.075Z,15.97
2022-12-08T02:29:02.332Z,14.00
2022-12-08T02:32:06.699Z,12.03
2022-12-08T02:34:57.261Z,15.37
2022-12-08T02:37:32.717Z,12.90
2022-12-08T02:40:13.918Z,11.73
2022-12-08T02:42:47.602Z,11.00
2022-12-08T02:45:24.086Z,13.87
2022-12-08T02:47:52.062Z,14.13
2022-12-08T02:50:18.942Z,17.47
2022-12-08T02:52:48.307Z,14.60
2022-12-08T02:55:27.711Z,14.97
2022-12-08T02:58:37.972Z,12.53
2022-12-08T03:01:12.103Z,11.97
2022-12-08T03:03:46.101Z,13.30
2022-12-08T03:06:12.559Z,13.33
2022-12-08T03:08:56.343Z,14.47
2022-12-08T03:11:41.905Z,13.50
2022-12-08T03:14:14.264Z,10.97
2022-12-08T03:16:43.297Z,18.87
2022-12-08T03:19:19.877Z,18.10
2022-12-08T03:21:53.627Z,14.27
2022-12-08T03:24:23.169Z,13.93
2022-12-08T03:26:59.854Z,18.07
2022-12-08T03:29:26.778Z,33.67
2022-12-08T03:32:04.584Z,94.47
2022-12-08T03:34:31.685Z,55.17
2022-12-08T03:37:01.387Z,39.97
2022-12-08T03:39:34.850Z,44.83
2022-12-08T03:42:01.354Z,49.23
2022-12-08T03:44:29.611Z,23.27
2022-12-08T03:46:56.138Z,86.87
2022-12-08T03:49:22.711Z,108.20
2022-12-08T03:51:49.474Z,70.87
2022-12-08T03:54:16.040Z,52.13
2022-12-08T03:56:42.621Z,49.07
2022-12-08T03:59:10.553Z,22.30
2022-12-08T04:01:37.182Z,15.93
2022-12-08T04:04:03.720Z,12.77
2022-12-08T04:06:34.744Z,11.83
2022-12-08T04:09:04.462Z,15.87
2022-12-08T04:11:34.026Z,12.90
2022-12-08T04:14:03.655Z,12.70
2022-12-08T04:16:33.806Z,13.97
2022-12-08T04:19:03.570Z,15.00
2022-12-08T04:21:32.493Z,17.70
2022-12-08T04:24:01.339Z,14.20
2022-12-08T04:26:28.743Z,17.47
2022-12-08T04:28:55.512Z,18.80
2022-12-08T04:31:22.106Z,23.00
2022-12-08T04:33:48.743Z,16.37
2022-12-08T04:36:15.269Z,14.83
2022-12-08T04:38:41.803Z,15.97
2022-12-08T04:41:08.661Z,11.70
2022-12-08T04:43:35.880Z,14.73
2022-12-08T04:46:08.998Z,14.07
2022-12-08T04:48:37.812Z,12.73
2022-12-08T04:51:04.692Z,13.40
2022-12-08T04:53:36.397Z,14.23
2022-12-08T04:56:11.712Z,14.10
2022-12-08T04:58:38.198Z,16.10
2022-12-08T05:01:07.280Z,11.73
2022-12-08T05:03:36.954Z,12.93
2022-12-08T05:06:07.302Z,12.20
2022-12-08T05:08:36.911Z,11.37
2022-12-08T05:11:09.172Z,11.47
2022-12-08T05:13:35.723Z,12.10
2022-12-08T05:16:07.497Z,13.43
2022-12-08T05:18:38.397Z,16.00
2022-12-08T05:21:06.359Z,15.97
2022-12-08T05:23:36.735Z,15.77
2022-12-08T05:26:06.002Z,10.53
2022-12-08T05:28:42.246Z,14.00
2022-12-08T05:31:09.997Z,15.83
2022-12-08T05:33:36.747Z,13.77
2022-12-08T05:36:04.717Z,20.90
2022-12-08T05:38:31.973Z,15.10
2022-12-08T05:40:58.647Z,18.50
2022-12-08T05:43:25.148Z,13.70
2022-12-08T05:45:51.757Z,17.87
2022-12-08T05:48:18.382Z,19.67
2022-12-08T05:50:48.717Z,14.70
2022-12-08T05:53:16.707Z,14.80
2022-12-08T05:55:43.435Z,18.30
2022-12-08T05:58:14.780Z,15.00
2022-12-08T06:00:42.403Z,18.83
2022-12-08T06:03:11.613Z,21.77
2022-12-08T06:05:43.019Z,15.50
2022-12-08T06:08:10.039Z,12.80
2022-12-08T06:10:39.720Z,17.10
2022-12-08T06:13:08.726Z,17.20
2022-12-08T06:15:38.738Z,15.63
2022-12-08T06:18:09.563Z,18.97
2022-12-08T06:20:38.836Z,18.50
2022-12-08T06:23:05.388Z,16.33
2022-12-08T06:25:31.942Z,14.77
2022-12-08T06:27:58.492Z,16.00
2022-12-08T06:30:25.039Z,15.40
2022-12-08T06:32:51.555Z,21.30
2022-12-08T06:35:18.164Z,19.23
2022-12-08T06:37:44.695Z,17.60
2022-12-08T06:40:11.635Z,16.57
2022-12-08T06:42:44.024Z,18.37
2022-12-08T06:45:12.873Z,16.43
2022-12-08T06:47:42.727Z,20.47
2022-12-08T06:50:11.135Z,17.23
2022-12-08T06:52:47.284Z,13.40
2022-12-08T06:55:35.409Z,14.63
2022-12-08T06:58:02.638Z,17.97
2022-12-08T07:00:29.334Z,18.20
2022-12-08T07:02:55.949Z,15.97
2022-12-08T07:05:22.511Z,16.83
2022-12-08T07:07:49.141Z,15.47
2022-12-08T07:10:15.717Z,18.10
2022-12-08T07:12:42.243Z,14.03
2022-12-08T07:15:10.681Z,13.20
2022-12-08T07:17:37.253Z,17.53
2022-12-08T07:20:04.313Z,16.07
2022-12-08T07:22:30.994Z,19.40
2022-12-08T07:24:57.481Z,14.83
2022-12-08T07:27:23.976Z,16.10
2022-12-08T07:29:50.514Z,13.27
2022-12-08T07:32:16.990Z,15.77
2022-12-08T07:34:43.514Z,14.07
2022-12-08T07:37:12.527Z,19.00
2022-12-08T07:39:39.015Z,15.90
2022-12-08T07:42:05.564Z,15.10
2022-12-08T07:44:32.080Z,18.30
2022-12-08T07:46:58.603Z,18.57
2022-12-08T07:49:25.160Z,19.23
2022-12-08T07:51:51.683Z,17.73
2022-12-08T07:54:18.174Z,17.00
2022-12-08T07:56:44.663Z,16.83
2022-12-08T07:59:15.363Z,16.43
2022-12-08T08:01:45.515Z,14.27
2022-12-08T08:04:13.494Z,17.27
2022-12-08T08:06:40.143Z,19.17
2022-12-08T08:09:06.787Z,14.57
2022-12-08T08:11:33.381Z,13.80
2022-12-08T08:13:59.880Z,20.00
2022-12-08T08:16:26.571Z,19.40
2022-12-08T08:18:53.589Z,16.30
2022-12-08T08:24:07.854Z,16.63
2022-12-08T08:26:34.613Z,14.90
2022-12-08T08:29:01.107Z,14.27
2022-12-08T08:31:27.725Z,14.87
2022-12-08T08:33:55.648Z,15.80
2022-12-08T08:36:22.635Z,15.80
2022-12-08T08:38:49.239Z,15.83
2022-12-08T08:41:18.785Z,17.77
2022-12-08T08:43:48.296Z,19.67
2022-12-08T08:46:16.954Z,20.03
2022-12-08T08:48:43.527Z,18.77
2022-12-08T08:51:32.302Z,16.43
2022-12-08T08:53:59.088Z,17.20
2022-12-08T08:56:25.984Z,18.50
2022-12-08T08:58:53.244Z,16.43
2022-12-08T09:01:27.078Z,17.03
2022-12-08T09:03:54.929Z,19.50
2022-12-08T09:06:22.171Z,18.97
2022-12-08T09:08:49.067Z,19.00
2022-12-08T09:11:18.986Z,13.47
2022-12-08T09:13:49.815Z,16.97
2022-12-08T09:16:20.196Z,19.47
2022-12-08T09:18:49.318Z,18.53
2022-12-08T09:21:22.684Z,27.50
2022-12-08T09:23:58.771Z,28.33
2022-12-08T09:26:27.579Z,25.97
2022-12-08T09:28:56.133Z,19.53
2022-12-08T09:31:23.949Z,20.97
2022-12-08T09:33:53.704Z,18.87
2022-12-08T09:36:20.636Z,20.10
2022-12-08T09:38:47.876Z,18.50
2022-12-08T09:41:20.549Z,16.00
2022-12-08T09:44:00.374Z,19.90
2022-12-08T09:46:30.541Z,17.43
2022-12-08T09:48:59.163Z,15.30
2022-12-08T09:51:30.722Z,17.70
2022-12-08T09:54:02.457Z,19.90
2022-12-08T09:56:33.791Z,16.07
2022-12-08T09:59:03.941Z,16.03
2022-12-08T10:01:41.937Z,18.50
2022-12-08T10:04:32.469Z,20.97
2022-12-08T10:07:21.076Z,18.10
2022-12-08T10:10:22.411Z,13.60
2022-12-08T10:13:07.208Z,12.63
2022-12-08T10:15:33.691Z,14.20
2022-12-08T10:18:18.652Z,15.43
2022-12-08T10:20:50.987Z,15.00
2022-12-08T10:23:39.628Z,12.88
2022-12-08T10:26:11.998Z,14.83
2022-12-08T10:28:44.523Z,13.85
2022-12-08T10:31:20.791Z,14.40
2022-12-08T10:33:52.901Z,12.75
2022-12-08T10:36:19.749Z,15.30
2022-12-08T10:38:47.252Z,15.23
2022-12-08T10:41:18.406Z,15.98
2022-12-08T10:43:49.681Z,16.70
2022-12-08T10:46:21.825Z,11.63
2022-12-08T10:48:52.934Z,16.77
2022-12-08T10:51:33.574Z,12.27
2022-12-08T10:54:00.518Z,15.05
2022-12-08T10:56:30.116Z,13.98
2022-12-08T10:59:05.926Z,13.75
2022-12-08T11:01:39.464Z,11.43
2022-12-08T11:04:17.753Z,13.45
2022-12-08T11:06:45.197Z,16.75
2022-12-08T11:09:20.876Z,20.00
2022-12-08T11:12:23.022Z,16.67
2022-12-08T11:15:01.575Z,19.70
2022-12-08T11:17:35.605Z,14.63
2022-12-08T11:20:11.281Z,14.93
2022-12-08T11:22:42.901Z,18.33
2022-12-08T11:25:27.689Z,18.88
2022-12-08T11:27:58.048Z,16.63
2022-12-08T11:30:48.770Z,16.77
2022-12-08T11:33:22.508Z,18.92
2022-12-08T11:36:09.023Z,17.75
2022-12-08T11:38:41.873Z,18.13
2022-12-08T11:41:16.399Z,20.00
2022-12-08T11:44:06.130Z,17.40
2022-12-08T11:46:40.891Z,18.97
2022-12-08T11:49:13.551Z,18.13
2022-12-08T11:51:43.993Z,16.02
2022-12-08T11:54:26.131Z,21.17
2022-12-08T11:57:02.017Z,18.08
2022-12-08T11:59:41.923Z,15.43
2022-12-08T12:02:17.795Z,18.33
2022-12-08T12:04:52.213Z,13.48
2022-12-08T12:07:33.245Z,14.20
2022-12-08T12:10:20.680Z,19.70
2022-12-08T12:12:49.882Z,16.50
2022-12-08T12:15:32.505Z,15.52
2022-12-08T12:18:20.562Z,17.13
2022-12-08T12:20:57.446Z,23.58
2022-12-08T12:23:39.073Z,22.30
2022-12-08T12:26:07.761Z,19.00
2022-12-08T12:28:53.173Z,12.55
2022-12-08T12:31:25.702Z,17.13
2022-12-08T12:33:57.145Z,17.08
2022-12-08T12:36:25.585Z,16.55
2022-12-08T12:39:08.649Z,14.93
2022-12-08T12:41:56.588Z,16.20
2022-12-08T12:44:28.965Z,19.50
2022-12-08T12:46:58.804Z,15.70
2022-12-08T12:49:40.677Z,20.38
2022-12-08T12:52:10.156Z,12.95
2022-12-08T12:54:36.701Z,19.67
2022-12-08T12:57:09.380Z,20.48
2022-12-08T12:59:35.834Z,15.68
2022-12-08T13:02:03.085Z,16.50
2022-12-08T13:04:35.129Z,14.95
2022-12-08T13:07:02.171Z,19.08
2022-12-08T13:09:39.858Z,15.43
2022-12-08T13:12:23.457Z,14.60
2022-12-08T13:14:51.694Z,21.88
2022-12-08T13:17:28.340Z,16.35
2022-12-08T13:19:58.451Z,15.43
2022-12-08T13:22:54.213Z,22.20
2022-12-08T13:25:38.960Z,18.05
2022-12-08T13:28:20.928Z,17.38
2022-12-08T13:30:50.279Z,14.10
2022-12-08T13:33:41.178Z,18.35
2022-12-08T13:36:13.452Z,16.67
2022-12-08T13:38:43.993Z,17.05
2022-12-08T13:41:19.092Z,15.98
2022-12-08T13:45:17.910Z,17.55
2022-12-08T13:47:31.521Z,18.65
2022-12-08T13:50:55.709Z,15.80
2022-12-08T13:58:37.356Z,15.07
2022-12-08T14:01:21.720Z,14.80
2022-12-08T14:04:31.040Z,15.95
2022-12-08T14:06:46.707Z,14.57
2022-12-08T14:09:19.192Z,15.00
2022-12-08T14:11:59.067Z,17.70
2022-12-08T14:17:31.376Z,17.55
2022-12-08T14:20:06.574Z,17.33
2022-12-08T14:22:38.708Z,21.10
2022-12-08T14:25:07.910Z,14.50
2022-12-08T14:27:37.130Z,14.93
2022-12-08T14:30:06.201Z,18.63
2022-12-08T14:33:11.341Z,23.63
2022-12-08T14:35:39.633Z,20.27
2022-12-08T14:38:14.171Z,24.03
2022-12-08T14:40:44.144Z,17.27
2022-12-08T14:43:12.336Z,19.83
2022-12-08T14:45:45.128Z,16.53
2022-12-08T14:48:44.761Z,15.67
2022-12-08T14:51:21.448Z,17.50
2022-12-08T14:53:56.074Z,17.10
2022-12-08T14:56:26.902Z,19.03
2022-12-08T14:59:14.354Z,21.10
2022-12-08T15:01:43.116Z,15.93
2022-12-08T15:04:12.838Z,20.10
2022-12-08T15:06:56.414Z,17.63
2022-12-08T15:09:35.172Z,17.13
2022-12-08T15:12:27.401Z,18.77
2022-12-08T15:14:58.595Z,20.87
2022-12-08T15:17:40.233Z,18.90
2022-12-08T15:20:31.700Z,20.13
2022-12-08T15:23:02.145Z,18.77
2022-12-08T15:25:28.807Z,20.03
2022-12-08T15:27:57.882Z,21.80
2022-12-08T15:30:28.652Z,16.10
2022-12-08T15:32:56.177Z,17.63
2022-12-08T15:35:22.888Z,18.37
2022-12-08T15:37:52.622Z,17.90
2022-12-08T15:40:21.700Z,22.67
2022-12-08T15:42:51.179Z,22.27
2022-12-08T15:45:17.938Z,21.80
2022-12-08T15:47:45.749Z,19.63
2022-12-08T15:50:21.500Z,27.43
2022-12-08T15:52:51.435Z,24.10
2022-12-08T15:55:21.392Z,20.97
2022-12-08T16:00:55.129Z,19.80
2022-12-08T16:04:13.770Z,21.80
2022-12-08T16:07:21.217Z,22.87
2022-12-08T16:09:14.176Z,19.47
2022-12-08T16:12:09.073Z,17.87
2022-12-08T16:17:24.266Z,20.20
2022-12-08T16:19:51.259Z,20.57
2022-12-08T16:25:20.273Z,22.83
2022-12-08T16:30:36.688Z,23.57
2022-12-08T16:33:03.645Z,23.70
2022-12-08T16:35:30.746Z,20.50
2022-12-08T16:37:57.638Z,20.03
2022-12-08T16:40:24.449Z,18.27
2022-12-08T16:42:52.392Z,22.07
2022-12-08T16:45:28.011Z,21.63
2022-12-08T16:48:00.050Z,22.37
2022-12-08T16:50:32.315Z,24.43
2022-12-08T16:53:07.326Z,18.03
2022-12-08T16:55:34.786Z,22.17
2022-12-08T16:58:02.662Z,22.50
2022-12-08T17:00:30.773Z,25.70
2022-12-08T17:02:58.928Z,31.43
2022-12-08T17:05:26.665Z,28.37
2022-12-08T17:07:54.179Z,36.13
2022-12-08T17:10:32.075Z,27.40
2022-12-08T17:12:58.606Z,26.17
2022-12-08T17:15:26.092Z,23.53
2022-12-08T17:17:53.690Z,29.40
2022-12-08T17:20:29.367Z,26.00
2022-12-08T17:22:58.211Z,23.27
2022-12-08T17:25:27.746Z,29.10
2022-12-08T17:27:57.400Z,22.30
2022-12-08T17:30:26.012Z,27.40
2022-12-08T17:32:52.938Z,27.63
2022-12-08T17:35:19.794Z,27.27
2022-12-08T17:37:46.361Z,25.93
2022-12-08T17:40:13.010Z,21.33
2022-12-08T17:42:39.661Z,19.87
2022-12-08T17:45:07.647Z,24.57
2022-12-08T17:47:34.795Z,21.53
2022-12-08T17:50:01.347Z,23.10
2022-12-08T17:52:28.564Z,25.23
2022-12-08T17:54:57.717Z,25.47
2022-12-08T17:57:28.464Z,23.60
2022-12-08T17:59:57.768Z,19.70
2022-12-08T18:02:30.423Z,21.73
2022-12-08T18:04:56.942Z,25.43
2022-12-08T18:07:25.311Z,22.93
2022-12-08T18:09:52.361Z,24.63
2022-12-08T18:12:23.874Z,20.33
2022-12-08T18:14:51.744Z,26.93
2022-12-08T18:17:18.414Z,23.43
2022-12-08T18:19:45.028Z,24.30
2022-12-08T18:22:12.313Z,25.70
2022-12-08T18:24:38.879Z,29.27
2022-12-08T18:27:05.446Z,22.60
2022-12-08T18:29:32.429Z,22.10
2022-12-08T18:31:59.030Z,40.23
2022-12-08T18:34:28.360Z,28.97
2022-12-08T18:36:58.388Z,29.07
2022-12-08T18:39:30.028Z,23.23
2022-12-08T18:42:02.626Z,21.00
2022-12-08T18:44:29.277Z,23.57
2022-12-08T18:46:58.614Z,23.70
2022-12-08T18:49:26.710Z,26.63
2022-12-08T18:51:55.573Z,24.13
2022-12-08T18:54:37.212Z,23.83
2022-12-08T18:57:09.351Z,28.40
2022-12-08T18:59:37.930Z,27.77
2022-12-08T19:02:04.533Z,26.63
2022-12-08T19:04:33.655Z,20.67
2022-12-08T19:07:03.976Z,26.77
2022-12-08T19:09:30.529Z,26.10
2022-12-08T19:11:57.539Z,30.10
2022-12-08T19:14:28.156Z,25.80
2022-12-08T19:16:58.495Z,28.33
2022-12-08T19:19:31.490Z,26.30
2022-12-08T19:21:58.261Z,31.40
2022-12-08T19:24:27.373Z,28.87
2022-12-08T19:26:54.007Z,31.53
2022-12-08T19:29:24.157Z,38.23
2022-12-08T19:31:52.431Z,37.40
2022-12-08T19:34:19.450Z,26.40
2022-12-08T19:36:46.139Z,29.13
2022-12-08T19:39:39.809Z,25.30
2022-12-08T19:42:32.197Z,28.03
2022-12-08T19:45:08.310Z,26.90
2022-12-08T19:47:34.902Z,27.13
2022-12-08T19:50:20.376Z,30.50
2022-12-08T19:52:46.864Z,31.47
2022-12-08T19:55:13.623Z,35.30
2022-12-08T19:57:40.460Z,37.50
2022-12-08T20:00:10.112Z,33.57
2022-12-08T20:02:37.438Z,31.87
2022-12-08T20:05:05.305Z,29.47
2022-12-08T20:07:31.908Z,48.73
2022-12-08T20:10:04.233Z,40.77
2022-12-08T20:12:31.234Z,31.73
2022-12-08T20:15:00.394Z,29.27
2022-12-08T20:17:30.252Z,31.87
2022-12-08T20:20:05.305Z,29.63
2022-12-08T20:22:33.626Z,28.80
2022-12-08T20:25:01.102Z,25.07
2022-12-08T20:27:30.570Z,29.43
2022-12-08T20:30:00.011Z,30.83
2022-12-08T20:32:30.502Z,29.00
2022-12-08T20:34:59.203Z,31.17
2022-12-08T20:37:29.583Z,35.83
2022-12-08T20:39:57.508Z,30.53
2022-12-08T20:42:24.195Z,30.97
2022-12-08T20:44:50.857Z,37.67
2022-12-08T20:47:17.473Z,46.73
2022-12-08T20:49:44.253Z,33.37
2022-12-08T20:52:10.809Z,30.40
2022-12-08T20:54:37.682Z,29.07
2022-12-08T20:57:05.227Z,31.30
2022-12-08T20:59:32.138Z,36.17
2022-12-08T21:02:02.189Z,28.67
2022-12-08T21:04:31.596Z,35.50
2022-12-08T21:07:00.953Z,37.00
2022-12-08T21:09:30.792Z,33.20
2022-12-08T21:12:00.836Z,37.43
2022-12-08T21:14:30.345Z,36.03
2022-12-08T21:16:59.610Z,35.60
2022-12-08T21:19:28.965Z,33.43
2022-12-08T21:21:55.511Z,37.17
2022-12-08T21:24:22.230Z,38.40
2022-12-08T21:26:48.933Z,55.50
2022-12-08T21:29:16.981Z,41.97
2022-12-08T21:31:43.775Z,49.33
2022-12-08T21:34:11.237Z,36.20
2022-12-08T21:36:37.939Z,54.63
2022-12-08T21:39:10.951Z,52.03
2022-12-08T21:41:55.983Z,43.03
2022-12-08T21:44:23.561Z,30.90
2022-12-08T21:46:50.381Z,36.90
2022-12-08T21:49:17.041Z,38.77
2022-12-08T21:51:43.913Z,42.73
2022-12-08T21:54:18.609Z,37.03
2022-12-08T21:56:46.926Z,35.13
2022-12-08T21:59:13.810Z,27.47
2022-12-08T22:01:43.313Z,30.10
2022-12-08T22:04:12.581Z,31.60
2022-12-08T22:06:39.566Z,29.80
2022-12-08T22:09:07.418Z,24.67
2022-12-08T22:11:34.080Z,27.33
2022-12-08T22:14:03.682Z,25.27
2022-12-08T22:16:33.604Z,34.40
2022-12-08T22:19:03.796Z,33.37
2022-12-08T22:21:31.648Z,29.30
2022-12-08T22:23:58.444Z,32.03
2022-12-08T22:26:25.024Z,26.70
2022-12-08T22:28:51.975Z,27.93
2022-12-08T22:31:21.034Z,28.90
2022-12-08T22:33:48.881Z,36.83
2022-12-08T22:36:21.764Z,32.20
2022-12-08T22:38:48.955Z,33.83
2022-12-08T22:41:16.740Z,32.20
2022-12-08T22:43:43.865Z,36.73
2022-12-08T22:46:14.419Z,34.63
2022-12-08T22:48:41.289Z,33.47
2022-12-08T22:51:08.674Z,30.57
2022-12-08T22:53:35.334Z,34.63
2022-12-08T22:56:09.770Z,33.33
2022-12-08T22:58:37.064Z,36.50
2022-12-08T23:01:04.840Z,35.63
2022-12-08T23:03:37.632Z,42.27
2022-12-08T23:06:12.973Z,35.73
2022-12-08T23:08:39.920Z,39.27
2022-12-08T23:11:06.620Z,38.10
2022-12-08T23:13:37.815Z,34.00
2022-12-08T23:16:08.428Z,37.43
2022-12-08T23:18:35.732Z,38.77
2022-12-08T23:21:11.198Z,38.23
2022-12-08T23:23:38.088Z,40.53
2022-12-08T23:26:12.623Z,41.07
2022-12-08T23:28:39.306Z,39.90
2022-12-08T23:31:09.343Z,39.27
2022-12-08T23:33:36.273Z,37.77
2022-12-08T23:36:06.957Z,40.07
2022-12-08T23:38:36.804Z,37.10
2022-12-08T23:41:05.956Z,35.53
2022-12-08T23:43:35.888Z,35.60
2022-12-08T23:46:04.394Z,40.83
2022-12-08T23:48:36.667Z,35.40
2022-12-08T23:51:03.373Z,38.10
2022-12-08T23:53:31.933Z,38.90
2022-12-08T23:56:17.901Z,40.10
2022-12-08T23:58:45.538Z,33.33
